Time;durP1;ratioP1;P1;durP2;ratioP2;P2;SDS_P1;SDS_P2;PMS_P1;PMS_P2;Temp;Humidity;BMP_temperature;BMP_pressure;BME280_temperature;BME280_humidity;BME280_pressure;Samples;Min_cycle;Max_cycle;Signal;HPM_P1;HPM_P2
2022/09/03 00:00:53;;;;;;;7.28;1.80;;;15.60;91.80;;;;;;5099527;28;20048;-95
2022/09/03 00:03:49;;;;;;;5.25;1.80;;;15.60;91.40;;;;;;5095310;28;20115;-95
2022/09/03 00:06:22;;;;;;;6.63;1.80;;;15.50;91.80;;;;;;5092532;28;20377;-96
2022/09/03 00:09:10;;;;;;;5.03;1.67;;;15.80;91.70;;;;;;5094343;28;20048;-95
2022/09/03 00:11:54;;;;;;;3.85;1.60;;;15.50;91.70;;;;;;5098617;28;20052;-95
2022/09/03 00:14:25;;;;;;;6.68;1.70;;;15.40;91.80;;;;;;5096134;28;20066;-96
2022/09/03 00:16:59;;;;;;;5.97;1.67;;;15.40;91.70;;;;;;5117774;28;20051;-96
2022/09/03 00:19:31;;;;;;;6.13;1.80;;;15.40;91.80;;;;;;5105954;28;20074;-96
2022/09/03 00:22:06;;;;;;;4.38;1.50;;;15.40;91.90;;;;;;5098556;28;20058;-96
2022/09/03 00:24:38;;;;;;;5.22;1.60;;;15.30;91.90;;;;;;5102973;28;20039;-95
2022/09/03 00:27:10;;;;;;;5.93;1.70;;;15.40;92.00;;;;;;5115247;28;20185;-96
2022/09/03 00:29:42;;;;;;;5.55;1.63;;;15.20;91.90;;;;;;5130649;22;20040;-95
2022/09/03 00:32:17;;;;;;;6.25;1.73;;;15.30;92.00;;;;;;5053101;28;20053;-95
2022/09/03 00:34:49;;;;;;;4.20;1.70;;;15.30;92.10;;;;;;5054456;28;20382;-94
2022/09/03 00:37:15;;;;;;;5.70;1.75;;;15.10;92.10;;;;;;5053828;28;20077;-94
2022/09/03 00:39:41;;;;;;;6.82;1.60;;;15.20;92.20;;;;;;5054522;28;20125;-95
2022/09/03 00:42:33;;;;;;;6.97;1.70;;;15.20;92.40;;;;;;5052771;28;20469;-95
2022/09/03 00:45:28;;;;;;;4.57;1.63;;;15.20;93.00;;;;;;5054520;28;20047;-94
2022/09/03 00:48:01;;;;;;;4.80;1.67;;;15.20;92.40;;;;;;5015496;28;20048;-95
2022/09/03 00:51:02;;;;;;;5.13;1.67;;;15.30;92.40;;;;;;5052459;28;20064;-95
2022/09/03 00:53:46;;;;;;;5.35;1.60;;;15.30;92.50;;;;;;5052744;28;20495;-96
2022/09/03 00:56:18;;;;;;;5.85;1.67;;;15.20;92.60;;;;;;5052441;28;20037;-96
2022/09/03 00:59:13;;;;;;;4.07;1.65;;;15.20;92.60;;;;;;5036073;28;20436;-95
2022/09/03 01:02:37;;;;;;;5.55;1.60;;;15.20;92.60;;;;;;5037344;28;20056;-95
2022/09/03 01:05:14;;;;;;;4.53;1.60;;;15.20;92.90;;;;;;4980076;28;20067;-95
2022/09/03 01:07:47;;;;;;;5.15;1.60;;;15.20;92.90;;;;;;4980270;28;20046;-96
2022/09/03 01:10:52;;;;;;;4.40;1.70;;;15.10;92.70;;;;;;5016190;28;20065;-95
2022/09/03 01:13:23;;;;;;;4.75;1.70;;;15.20;92.90;;;;;;5057856;28;20048;-95
2022/09/03 01:15:55;;;;;;;4.05;1.58;;;15.20;93.10;;;;;;5041462;28;20507;-96
2022/09/03 01:18:27;;;;;;;6.85;1.70;;;15.20;92.90;;;;;;5045176;28;20047;-96
2022/09/03 01:21:22;;;;;;;4.82;1.60;;;15.20;92.90;;;;;;5057153;28;20543;-95
2022/09/03 01:24:38;;;;;;;5.28;1.50;;;15.20;93.00;;;;;;5039460;28;20055;-95
2022/09/03 01:27:14;;;;;;;5.22;1.50;;;15.20;93.20;;;;;;5039578;28;20049;-96
2022/09/03 01:30:02;;;;;;;4.68;1.58;;;15.20;92.80;;;;;;5025754;28;20053;-94
2022/09/03 01:32:34;;;;;;;4.88;1.50;;;15.30;92.90;;;;;;5019500;28;20053;-96
2022/09/03 01:35:23;;;;;;;6.15;1.80;;;15.30;93.00;;;;;;5036022;28;20045;-95
2022/09/03 01:38:19;;;;;;;4.43;1.63;;;15.30;93.00;;;;;;5019585;28;20527;-95
2022/09/03 01:42:12;;;;;;;6.18;1.65;;;15.40;93.00;;;;;;5019539;28;20041;-95
2022/09/03 01:44:08;;;;;;;4.80;1.60;;;15.40;92.90;;;;;;5036848;28;20049;-94
2022/09/03 01:46:39;;;;;;;5.40;1.77;;;15.40;93.00;;;;;;5019383;28;20500;-95
2022/09/03 01:49:22;;;;;;;4.88;1.67;;;15.40;93.00;;;;;;5037353;28;20113;-95
2022/09/03 01:52:10;;;;;;;4.05;1.50;;;15.40;93.10;;;;;;5037066;28;20050;-96
2022/09/03 01:54:50;;;;;;;6.32;1.80;;;15.30;93.40;;;;;;5018915;28;20493;-96
2022/09/03 01:57:57;;;;;;;5.57;1.60;;;15.80;93.20;;;;;;5039985;28;20052;-96
2022/09/03 02:00:25;;;;;;;6.55;1.58;;;15.30;93.20;;;;;;5027028;28;20063;-96
2022/09/03 02:02:52;;;;;;;6.03;1.70;;;15.30;93.10;;;;;;5033936;28;20025;-96
2022/09/03 02:05:23;;;;;;;5.00;1.70;;;15.30;93.10;;;;;;5060401;28;20041;-96
2022/09/03 02:07:53;;;;;;;5.75;1.85;;;15.30;93.20;;;;;;5058101;28;20056;-96
2022/09/03 02:10:24;;;;;;;5.10;1.70;;;15.50;93.40;;;;;;5044016;28;20025;-96
2022/09/03 02:13:00;;;;;;;5.05;1.70;;;16.20;93.60;;;;;;5046816;28;20088;-96
2022/09/03 02:15:27;;;;;;;4.55;1.70;;;15.30;93.40;;;;;;5037546;28;20140;-95
2022/09/03 02:17:58;;;;;;;4.63;1.67;;;15.20;93.40;;;;;;5036541;28;20068;-95
2022/09/03 02:20:27;;;;;;;5.88;1.90;;;15.30;93.70;;;;;;5036825;28;20042;-96
2022/09/03 02:22:53;;;;;;;3.60;1.60;;;15.20;93.50;;;;;;5035710;28;20061;-94
2022/09/03 02:25:22;;;;;;;5.10;1.80;;;15.20;93.50;;;;;;5034775;28;20041;-94
2022/09/03 02:27:49;;;;;;;6.03;1.70;;;15.20;93.70;;;;;;5034829;28;20576;-96
2022/09/03 02:30:16;;;;;;;7.00;1.70;;;15.70;93.80;;;;;;5052333;28;20048;-96
2022/09/03 02:32:42;;;;;;;5.35;1.67;;;15.70;93.80;;;;;;5056848;28;20128;-96
2022/09/03 02:35:08;;;;;;;5.35;1.63;;;15.20;93.80;;;;;;5059914;28;20057;-96
2022/09/03 02:37:34;;;;;;;5.47;1.63;;;15.10;93.80;;;;;;5057348;28;20041;-95
2022/09/03 02:40:00;;;;;;;3.20;1.50;;;15.10;93.80;;;;;;5056680;28;20052;-95
2022/09/03 02:42:26;;;;;;;5.45;1.65;;;15.10;93.80;;;;;;5055745;28;20115;-95
2022/09/03 02:44:56;;;;;;;5.55;1.70;;;15.10;93.90;;;;;;5056376;28;20132;-95
2022/09/03 02:47:24;;;;;;;12.38;1.80;;;15.10;94.00;;;;;;5054833;28;20400;-95
2022/09/03 02:49:50;;;;;;;8.18;1.70;;;15.00;94.00;;;;;;5055327;28;20041;-95
2022/09/03 02:52:16;;;;;;;4.55;1.70;;;15.00;94.00;;;;;;5055662;28;20527;-94
2022/09/03 02:54:43;;;;;;;4.20;1.55;;;15.40;94.20;;;;;;5038233;28;20452;-96
2022/09/03 02:57:12;;;;;;;5.80;1.75;;;15.60;94.30;;;;;;5037460;28;20053;-95
2022/09/03 02:59:40;;;;;;;4.93;1.60;;;15.00;94.20;;;;;;5037361;28;20538;-95
2022/09/03 03:02:06;;;;;;;6.07;1.70;;;15.00;94.10;;;;;;5055581;28;20051;-96
2022/09/03 03:04:32;;;;;;;4.53;1.73;;;15.00;94.20;;;;;;5037180;28;20127;-95
2022/09/03 03:06:58;;;;;;;3.97;1.60;;;15.50;94.30;;;;;;5038152;28;20048;-94
2022/09/03 03:09:24;;;;;;;5.00;1.70;;;15.00;94.30;;;;;;5037183;28;20050;-95
2022/09/03 03:11:50;;;;;;;4.43;1.50;;;15.00;94.40;;;;;;5036960;28;20106;-96
2022/09/03 03:14:17;;;;;;;6.20;1.70;;;14.90;94.40;;;;;;5054433;28;20045;-94
2022/09/03 03:16:43;;;;;;;4.82;1.70;;;14.90;94.50;;;;;;5037049;28;20049;-94
2022/09/03 03:19:08;;;;;;;5.10;1.60;;;15.10;94.60;;;;;;5037066;28;20041;-95
2022/09/03 03:21:34;;;;;;;4.60;1.50;;;14.90;94.60;;;;;;5054987;28;20068;-96
2022/09/03 03:24:01;;;;;;;5.15;1.70;;;14.90;94.60;;;;;;5054236;28;20040;-95
2022/09/03 03:26:26;;;;;;;5.13;1.75;;;14.90;94.70;;;;;;5036712;28;20052;-96
2022/09/03 03:28:56;;;;;;;4.90;1.60;;;14.90;94.70;;;;;;5061512;28;20053;-96
2022/09/03 03:31:22;;;;;;;5.30;1.70;;;14.90;94.70;;;;;;5074700;28;20045;-96
2022/09/03 03:33:56;;;;;;;4.75;1.70;;;14.90;94.70;;;;;;5057489;28;20047;-96
2022/09/03 03:36:27;;;;;;;4.10;1.77;;;14.90;94.80;;;;;;5057147;28;20102;-95
2022/09/03 03:38:54;;;;;;;6.15;1.70;;;14.90;94.80;;;;;;5056832;28;20053;-95
2022/09/03 03:41:27;;;;;;;4.70;1.80;;;14.80;94.90;;;;;;5074580;28;20086;-95
2022/09/03 03:43:54;;;;;;;4.60;1.70;;;14.80;95.00;;;;;;5056305;28;20052;-96
2022/09/03 03:46:21;;;;;;;5.40;1.70;;;15.30;95.20;;;;;;5055834;28;20045;-94
2022/09/03 03:48:48;;;;;;;4.78;1.88;;;15.00;95.20;;;;;;5056539;28;20468;-95
2022/09/03 03:51:14;;;;;;;5.47;1.70;;;14.70;95.20;;;;;;5056030;28;20456;-94
2022/09/03 03:53:40;;;;;;;5.65;1.85;;;14.70;95.30;;;;;;5056312;28;20132;-96
2022/09/03 03:56:09;;;;;;;5.05;1.70;;;14.90;95.40;;;;;;5056683;28;20439;-96
2022/09/03 03:58:36;;;;;;;5.57;1.73;;;15.40;95.80;;;;;;5055878;28;20048;-94
2022/09/03 04:01:14;;;;;;;4.80;1.70;;;14.60;95.60;;;;;;5070076;28;20040;-95
2022/09/03 04:03:41;;;;;;;4.90;1.90;;;14.60;95.70;;;;;;5062840;28;20040;-96
2022/09/03 04:06:07;;;;;;;4.88;1.80;;;15.40;95.90;;;;;;5073645;28;20106;-95
2022/09/03 04:08:38;;;;;;;5.40;1.80;;;14.50;95.80;;;;;;5055710;28;20555;-96
2022/09/03 04:11:06;;;;;;;5.03;1.83;;;14.50;96.00;;;;;;5056328;28;20068;-95
2022/09/03 04:13:33;;;;;;;4.25;1.70;;;15.10;96.30;;;;;;5055616;28;20045;-95
2022/09/03 04:16:06;;;;;;;4.32;1.77;;;14.30;96.20;;;;;;5056340;28;20052;-95
2022/09/03 04:18:33;;;;;;;9.18;1.88;;;14.20;96.30;;;;;;5056172;28;20140;-95
2022/09/03 04:21:06;;;;;;;4.18;1.70;;;14.20;96.50;;;;;;5074324;28;20062;-95
2022/09/03 04:23:40;;;;;;;6.45;2.08;;;14.10;96.60;;;;;;5056076;28;20043;-95
2022/09/03 04:26:07;;;;;;;6.63;2.00;;;14.40;96.90;;;;;;5055857;28;20044;-94
2022/09/03 04:28:33;;;;;;;5.25;1.73;;;14.40;97.00;;;;;;5055080;28;20048;-95
2022/09/03 04:31:07;;;;;;;5.93;1.90;;;13.90;97.10;;;;;;5055807;28;20067;-94
2022/09/03 04:33:34;;;;;;;6.38;2.00;;;13.80;97.50;;;;;;5055605;28;20127;-95
2022/09/03 04:36:07;;;;;;;8.57;1.90;;;13.80;97.50;;;;;;5073432;28;20044;-95
2022/09/03 04:38:34;;;;;;;4.37;1.80;;;13.70;98.00;;;;;;5055338;28;20052;-95
2022/09/03 04:41:05;;;;;;;5.18;1.98;;;13.70;97.90;;;;;;5055738;28;20778;-94
2022/09/03 04:43:30;;;;;;;6.25;2.00;;;13.60;98.20;;;;;;5055556;28;20044;-95
2022/09/03 04:46:01;;;;;;;4.90;1.77;;;13.90;98.40;;;;;;5073642;28;20082;-94
2022/09/03 04:48:28;;;;;;;5.55;1.92;;;13.50;98.60;;;;;;5055386;28;20157;-95
2022/09/03 04:50:54;;;;;;;5.07;1.90;;;13.50;98.90;;;;;;5074148;28;20072;-95
2022/09/03 04:53:21;;;;;;;5.03;1.80;;;13.40;99.00;;;;;;5060029;28;20098;-94
2022/09/03 04:55:47;;;;;;;5.50;1.90;;;13.40;99.20;;;;;;5073684;28;20101;-94
2022/09/03 04:58:15;;;;;;;5.75;2.00;;;13.40;99.70;;;;;;5073805;28;20502;-96
2022/09/03 05:00:41;;;;;;;6.80;2.10;;;13.30;99.70;;;;;;5076891;28;20051;-96
2022/09/03 05:03:07;;;;;;;5.43;2.00;;;13.30;99.90;;;;;;5075449;28;20041;-95
2022/09/03 05:05:33;;;;;;;7.25;2.13;;;13.30;99.90;;;;;;5077364;28;20040;-94
2022/09/03 05:08:00;;;;;;;7.65;2.30;;;14.00;99.90;;;;;;5072120;28;20048;-94
2022/09/03 05:10:27;;;;;;;6.32;2.10;;;13.20;99.90;;;;;;5060723;28;20045;-94
2022/09/03 05:13:04;;;;;;;4.22;1.77;;;13.50;99.90;;;;;;5060090;28;20051;-95
2022/09/03 05:15:31;;;;;;;6.72;2.10;;;13.80;99.90;;;;;;5079339;28;20045;-95
2022/09/03 05:18:01;;;;;;;5.50;2.10;;;13.30;99.90;;;;;;5057485;28;20071;-95
2022/09/03 05:20:29;;;;;;;5.97;2.05;;;13.30;99.90;;;;;;5058133;28;20041;-95
2022/09/03 05:22:56;;;;;;;6.50;2.00;;;13.20;99.90;;;;;;5074818;28;20048;-94
2022/09/03 05:25:22;;;;;;;7.35;2.42;;;13.30;99.90;;;;;;5057122;28;20060;-94
2022/09/03 05:27:48;;;;;;;7.78;2.28;;;13.60;99.90;;;;;;5076009;28;20047;-95
2022/09/03 05:30:14;;;;;;;7.57;2.20;;;13.50;99.90;;;;;;5056864;28;20052;-94
2022/09/03 05:32:40;;;;;;;7.05;2.25;;;13.30;99.90;;;;;;5057013;28;20492;-96
2022/09/03 05:35:07;;;;;;;7.50;2.30;;;13.40;99.90;;;;;;5056556;28;20029;-94
2022/09/03 05:37:33;;;;;;;8.40;2.40;;;13.40;99.90;;;;;;5056171;28;20063;-95
2022/09/03 05:39:58;;;;;;;6.82;2.40;;;13.40;99.90;;;;;;5058183;28;20033;-95
2022/09/03 05:42:25;;;;;;;6.10;2.20;;;13.40;99.90;;;;;;5057945;28;20083;-94
2022/09/03 05:44:51;;;;;;;6.35;2.30;;;13.50;99.90;;;;;;5078130;28;20075;-92
2022/09/03 05:47:17;;;;;;;9.48;2.65;;;14.30;99.90;;;;;;5073602;28;20088;-87
2022/09/03 05:49:43;;;;;;;7.68;2.20;;;13.60;99.90;;;;;;5058615;28;20499;-86
2022/09/03 05:52:08;;;;;;;9.07;2.60;;;13.60;99.90;;;;;;5057380;28;20106;-85
2022/09/03 05:54:34;;;;;;;6.78;2.15;;;13.60;99.90;;;;;;5076464;28;20044;-86
2022/09/03 05:57:00;;;;;;;6.32;2.38;;;13.70;99.90;;;;;;5058489;28;20055;-84
2022/09/03 05:59:26;;;;;;;8.23;2.58;;;13.70;99.90;;;;;;5057423;28;20503;-85
2022/09/03 06:01:51;;;;;;;6.80;2.30;;;13.80;99.90;;;;;;5076743;28;20043;-85
2022/09/03 06:04:17;;;;;;;9.57;2.55;;;13.70;99.90;;;;;;5075949;28;20078;-83
2022/09/03 06:06:45;;;;;;;7.05;2.50;;;13.80;99.90;;;;;;5075157;28;20044;-84
2022/09/03 06:09:13;;;;;;;6.63;2.30;;;13.80;99.90;;;;;;5057569;28;20048;-84
2022/09/03 06:11:41;;;;;;;6.75;2.60;;;13.90;99.90;;;;;;5057693;28;20106;-84
2022/09/03 06:14:08;;;;;;;6.47;2.30;;;13.90;99.90;;;;;;5056690;28;20091;-83
2022/09/03 06:16:42;;;;;;;8.80;2.30;;;13.90;99.90;;;;;;5057845;28;20087;-86
2022/09/03 06:19:09;;;;;;;6.82;2.40;;;14.00;99.90;;;;;;5058010;28;20485;-85
2022/09/03 06:21:41;;;;;;;8.40;2.60;;;14.00;99.90;;;;;;5056512;28;20062;-85
2022/09/03 06:24:10;;;;;;;8.70;2.38;;;14.00;99.90;;;;;;5075549;28;20055;-84
2022/09/03 06:26:36;;;;;;;6.75;2.42;;;14.10;99.90;;;;;;5074608;28;20055;-85
2022/09/03 06:29:02;;;;;;;6.25;2.13;;;14.10;99.90;;;;;;5056989;28;20057;-84
2022/09/03 06:31:28;;;;;;;6.50;2.10;;;14.20;99.90;;;;;;5074671;28;20051;-85
2022/09/03 06:33:54;;;;;;;6.60;2.30;;;14.20;99.90;;;;;;5055945;28;20135;-85
2022/09/03 06:36:22;;;;;;;6.68;2.28;;;14.30;99.90;;;;;;5075423;28;20507;-89
2022/09/03 06:38:52;;;;;;;6.05;2.05;;;14.30;99.90;;;;;;5057949;28;20100;-88
2022/09/03 06:41:23;;;;;;;7.07;2.33;;;14.40;99.90;;;;;;5056223;28;20044;-87
2022/09/03 06:43:50;;;;;;;6.38;2.20;;;14.70;99.90;;;;;;5075646;28;20086;-86
2022/09/03 06:46:19;;;;;;;6.80;2.30;;;14.60;99.90;;;;;;5075520;28;20426;-88
2022/09/03 06:48:45;;;;;;;8.70;2.38;;;14.70;99.90;;;;;;5057292;28;20464;-88
2022/09/03 06:51:14;;;;;;;6.93;2.30;;;14.70;99.90;;;;;;5057208;28;20131;-86
2022/09/03 06:53:45;;;;;;;6.53;2.20;;;14.90;99.90;;;;;;5057630;28;20045;-87
2022/09/03 06:56:17;;;;;;;7.45;2.35;;;15.60;99.90;;;;;;5060205;28;20102;-87
2022/09/03 06:58:45;;;;;;;7.18;2.20;;;15.00;99.90;;;;;;5078771;28;20055;-87
2022/09/03 07:01:11;;;;;;;6.05;2.30;;;15.10;99.90;;;;;;5058783;28;20036;-86
2022/09/03 07:03:39;;;;;;;7.03;2.20;;;15.20;99.90;;;;;;5074407;28;20051;-86
2022/09/03 07:06:31;;;;;;;8.02;2.30;;;15.60;99.90;;;;;;5068332;28;20033;-87
2022/09/03 07:08:58;;;;;;;6.57;1.90;;;15.80;99.90;;;;;;5033351;28;20099;-87
2022/09/03 07:11:51;;;;;;;6.45;2.20;;;15.50;99.90;;;;;;5054858;28;20496;-88
2022/09/03 07:14:28;;;;;;;5.90;2.17;;;15.50;99.90;;;;;;5054528;28;20037;-89
2022/09/03 07:16:54;;;;;;;7.30;2.20;;;16.30;99.90;;;;;;5054897;28;20087;-89
2022/09/03 07:19:20;;;;;;;7.28;2.15;;;15.80;99.90;;;;;;5037033;28;20037;-88
2022/09/03 07:21:48;;;;;;;5.88;1.92;;;16.80;99.90;;;;;;5036965;28;20140;-89
2022/09/03 07:24:28;;;;;;;7.43;2.10;;;16.80;99.90;;;;;;5049778;28;20489;-90
2022/09/03 07:27:09;;;;;;;6.55;2.10;;;16.30;99.90;;;;;;5055238;28;20052;-92
2022/09/03 07:29:58;;;;;;;6.90;2.30;;;16.40;99.90;;;;;;5049057;28;20128;-87
2022/09/03 07:32:23;;;;;;;8.50;2.35;;;16.70;99.90;;;;;;5035815;28;20059;-87
2022/09/03 07:34:51;;;;;;;6.65;2.33;;;16.30;99.90;;;;;;5054208;28;20048;-87
2022/09/03 07:37:17;;;;;;;6.53;2.80;;;16.40;99.90;;;;;;5053243;28;20045;-87
2022/09/03 07:39:43;;;;;;;6.35;2.10;;;17.10;99.90;;;;;;5036145;28;20052;-86
2022/09/03 07:42:09;;;;;;;8.38;2.35;;;16.70;99.90;;;;;;5051677;28;20048;-87
2022/09/03 07:44:35;;;;;;;6.22;2.38;;;17.50;99.90;;;;;;5054849;28;20048;-82
2022/09/03 07:47:01;;;;;;;6.32;2.00;;;17.00;99.90;;;;;;5055171;28;20484;-81
2022/09/03 07:49:27;;;;;;;6.63;2.15;;;16.90;99.90;;;;;;5073463;28;20052;-80
2022/09/03 07:51:53;;;;;;;6.82;2.20;;;17.10;99.90;;;;;;5054613;28;20424;-80
2022/09/03 07:54:20;;;;;;;7.90;2.22;;;17.10;99.90;;;;;;5073583;28;20094;-80
2022/09/03 07:56:45;;;;;;;5.63;2.05;;;17.30;99.80;;;;;;5073463;28;20036;-81
2022/09/03 07:59:11;;;;;;;6.00;2.10;;;17.30;99.60;;;;;;5072204;28;20102;-81
2022/09/03 08:01:37;;;;;;;7.60;3.17;;;17.40;99.40;;;;;;5055326;28;20076;-80
2022/09/03 08:04:05;;;;;;;6.85;2.15;;;17.50;99.40;;;;;;5055328;28;20077;-81
2022/09/03 08:06:32;;;;;;;8.27;2.10;;;17.70;99.40;;;;;;5054251;28;20495;-81
2022/09/03 08:09:01;;;;;;;7.70;2.10;;;17.80;99.10;;;;;;5055296;28;20393;-81
2022/09/03 08:11:28;;;;;;;8.05;2.05;;;17.80;98.90;;;;;;5054461;28;20057;-80
2022/09/03 08:14:05;;;;;;;7.65;2.42;;;18.40;98.80;;;;;;5072335;28;20036;-80
2022/09/03 08:16:36;;;;;;;6.03;2.10;;;17.90;98.60;;;;;;5055119;28;20505;-83
2022/09/03 08:19:03;;;;;;;6.07;1.90;;;18.00;98.50;;;;;;5055147;28;20044;-82
2022/09/03 08:21:28;;;;;;;8.40;2.20;;;18.10;98.30;;;;;;5053972;28;20131;-82
2022/09/03 08:24:01;;;;;;;5.35;2.00;;;18.20;98.30;;;;;;5073256;28;20537;-83
2022/09/03 08:26:35;;;;;;;6.10;2.15;;;18.30;98.20;;;;;;5054164;28;20052;-82
2022/09/03 08:29:02;;;;;;;6.97;2.17;;;18.40;98.10;;;;;;5054884;28;20408;-81
2022/09/03 08:31:29;;;;;;;6.13;2.00;;;18.50;97.90;;;;;;5054538;28;20044;-81
2022/09/03 08:33:57;;;;;;;5.72;1.90;;;18.90;97.60;;;;;;5054302;28;20036;-82
2022/09/03 08:36:30;;;;;;;7.30;2.20;;;18.90;97.80;;;;;;5054662;28;20056;-81
2022/09/03 08:38:58;;;;;;;8.43;2.20;;;18.80;97.30;;;;;;5054951;28;20084;-82
2022/09/03 08:41:42;;;;;;;6.50;1.90;;;19.00;97.10;;;;;;5053791;28;20086;-81
2022/09/03 08:44:33;;;;;;;9.30;3.30;;;18.90;96.80;;;;;;5072737;28;20098;-81
2022/09/03 08:47:01;;;;;;;7.68;2.00;;;19.10;96.80;;;;;;5054730;28;20060;-82
2022/09/03 08:49:48;;;;;;;6.40;2.00;;;19.30;96.50;;;;;;5053613;28;20049;-82
2022/09/03 08:52:36;;;;;;;5.63;1.80;;;19.30;95.50;;;;;;5072398;28;20048;-81
2022/09/03 08:55:24;;;;;;;5.03;1.80;;;19.30;96.00;;;;;;5053966;28;20081;-87
2022/09/03 08:58:05;;;;;;;6.05;1.90;;;19.50;95.80;;;;;;5072782;28;20040;-84
2022/09/03 09:00:45;;;;;;;8.20;2.38;;;19.60;95.80;;;;;;5053907;28;20540;-80
2022/09/03 09:03:55;;;;;;;6.13;2.20;;;19.70;95.90;;;;;;5054065;28;20049;-80
2022/09/03 09:06:57;;;;;;;6.18;1.90;;;19.80;95.40;;;;;;5059133;28;20051;-79
2022/09/03 09:09:26;;;;;;;6.80;2.00;;;19.90;95.10;;;;;;5053451;28;20067;-80
2022/09/03 09:12:03;;;;;;;5.85;2.00;;;20.10;95.20;;;;;;5054285;28;20052;-81
2022/09/03 09:14:47;;;;;;;6.72;2.10;;;20.10;94.90;;;;;;5071587;28;20052;-81
2022/09/03 09:17:36;;;;;;;5.97;2.00;;;20.30;94.80;;;;;;5071715;28;20052;-81
2022/09/03 09:20:16;;;;;;;6.85;1.90;;;20.30;94.20;;;;;;5054643;28;20036;-80
2022/09/03 09:23:13;;;;;;;8.73;2.03;;;20.60;94.20;;;;;;5069371;28;20459;-81
2022/09/03 09:25:49;;;;;;;6.97;1.95;;;20.70;93.10;;;;;;5057670;28;20408;-80
2022/09/03 09:28:20;;;;;;;7.55;2.00;;;20.90;94.20;;;;;;5054539;28;20082;-79
2022/09/03 09:30:48;;;;;;;6.82;1.83;;;21.10;94.10;;;;;;5066399;28;20048;-78
2022/09/03 09:33:15;;;;;;;6.70;1.92;;;21.10;94.10;;;;;;5070901;28;20052;-79
2022/09/03 09:35:42;;;;;;;6.03;2.00;;;21.60;94.00;;;;;;5072533;28;20104;-79
2022/09/03 09:38:09;;;;;;;6.30;2.00;;;21.40;93.50;;;;;;5066390;28;20056;-79
2022/09/03 09:40:41;;;;;;;7.20;2.13;;;21.50;93.70;;;;;;5053653;28;20045;-79
2022/09/03 09:43:15;;;;;;;5.00;1.80;;;21.60;93.40;;;;;;5064601;28;20041;-79
2022/09/03 09:45:49;;;;;;;5.25;1.80;;;21.70;93.00;;;;;;5062359;28;20404;-79
2022/09/03 09:48:27;;;;;;;4.63;1.70;;;21.90;92.80;;;;;;5047259;28;20044;-78
2022/09/03 09:51:12;;;;;;;6.28;1.83;;;22.10;92.80;;;;;;5065752;28;20040;-80
2022/09/03 09:53:40;;;;;;;8.57;2.22;;;22.20;92.10;;;;;;5048142;28;20071;-80
2022/09/03 09:56:06;;;;;;;8.52;1.90;;;22.30;92.30;;;;;;5065160;28;20124;-79
2022/09/03 09:58:36;;;;;;;6.18;1.88;;;22.40;91.70;;;;;;5058278;28;20048;-78
2022/09/03 10:01:14;;;;;;;6.38;1.90;;;22.60;92.00;;;;;;5048252;28;20090;-79
2022/09/03 10:03:55;;;;;;;7.90;2.22;;;22.50;91.40;;;;;;5037458;28;20081;-79
2022/09/03 10:09:15;;;;;;;7.15;2.00;;;23.10;90.40;;;;;;5036952;28;20067;-79
2022/09/03 10:12:09;;;;;;;5.43;1.88;;;23.00;90.90;;;;;;5036501;28;20439;-78
2022/09/03 10:14:41;;;;;;;7.28;1.83;;;23.10;90.30;;;;;;5019988;28;20476;-79
2022/09/03 10:17:27;;;;;;;9.25;1.92;;;23.30;90.10;;;;;;5055198;28;20489;-79
2022/09/03 10:20:32;;;;;;;6.35;1.80;;;23.60;90.10;;;;;;5036898;28;20550;-79
2022/09/03 10:23:03;;;;;;;7.57;2.00;;;23.50;88.60;;;;;;5055214;28;20091;-79
2022/09/03 10:26:03;;;;;;;5.15;1.80;;;23.80;89.30;;;;;;5054951;28;20045;-80
2022/09/03 10:28:30;;;;;;;7.13;1.90;;;23.80;87.80;;;;;;5042135;28;20057;-79
2022/09/03 10:31:19;;;;;;;4.70;1.70;;;23.70;86.30;;;;;;5036565;28;20102;-80
2022/09/03 10:34:13;;;;;;;6.28;1.80;;;23.90;86.30;;;;;;5053945;28;20036;-79
2022/09/03 10:36:55;;;;;;;4.85;1.73;;;24.00;86.60;;;;;;5054715;28;20569;-81
2022/09/03 10:39:39;;;;;;;6.47;1.85;;;24.00;85.40;;;;;;5055093;28;20139;-83
2022/09/03 10:42:52;;;;;;;6.70;1.88;;;24.30;84.80;;;;;;5052364;28;20419;-82
2022/09/03 10:45:36;;;;;;;7.25;1.98;;;24.40;85.30;;;;;;4998919;28;20502;-83
2022/09/03 10:48:14;;;;;;;5.20;1.65;;;24.80;84.90;;;;;;4998063;28;20084;-83
2022/09/03 10:50:48;;;;;;;6.38;1.85;;;24.70;85.40;;;;;;5056209;28;20041;-81
2022/09/03 10:53:38;;;;;;;5.82;1.85;;;25.00;85.30;;;;;;5056756;28;20117;-82
2022/09/03 10:56:16;;;;;;;5.80;1.90;;;25.00;83.60;;;;;;5055578;28;20048;-79
2022/09/03 10:58:51;;;;;;;6.35;1.90;;;25.10;82.40;;;;;;5056894;28;20500;-76
2022/09/03 11:01:26;;;;;;;6.90;1.98;;;25.20;83.10;;;;;;5073289;28;20495;-79
2022/09/03 11:03:51;;;;;;;5.82;1.90;;;25.40;83.60;;;;;;5056495;28;20106;-76
2022/09/03 11:06:23;;;;;;;6.45;2.00;;;25.50;83.20;;;;;;5055951;28;20036;-76
2022/09/03 11:09:15;;;;;;;6.32;2.00;;;25.60;82.00;;;;;;5073693;28;20067;-76
2022/09/03 11:11:45;;;;;;;5.57;1.88;;;25.50;78.70;;;;;;5056178;28;20165;-76
2022/09/03 11:14:15;;;;;;;6.35;1.88;;;25.70;81.20;;;;;;5056388;28;20040;-76
2022/09/03 11:16:47;;;;;;;4.93;1.80;;;25.50;81.40;;;;;;5073265;28;20526;-76
2022/09/03 11:19:17;;;;;;;6.25;1.80;;;25.70;81.00;;;;;;5074303;28;20076;-76
2022/09/03 11:21:43;;;;;;;4.97;1.83;;;25.80;80.00;;;;;;5073867;28;20523;-77
2022/09/03 11:24:13;;;;;;;5.40;1.80;;;25.80;80.80;;;;;;5073488;28;20068;-77
2022/09/03 11:26:43;;;;;;;5.55;1.80;;;26.10;80.10;;;;;;5056052;28;20062;-76
2022/09/03 11:29:30;;;;;;;5.97;1.90;;;26.20;79.80;;;;;;5072638;28;20524;-76
2022/09/03 11:32:01;;;;;;;6.97;1.85;;;26.10;77.80;;;;;;5055939;28;20056;-76
2022/09/03 11:34:28;;;;;;;5.75;1.70;;;26.10;77.20;;;;;;5055745;28;20048;-76
2022/09/03 11:37:21;;;;;;;6.25;1.90;;;26.10;79.30;;;;;;5055570;28;20051;-76
2022/09/03 11:40:17;;;;;;;6.70;1.83;;;26.30;78.60;;;;;;5073819;28;20396;-77
2022/09/03 11:42:44;;;;;;;6.35;1.73;;;26.20;77.10;;;;;;5054704;28;20065;-76
2022/09/03 11:45:33;;;;;;;6.25;1.75;;;26.30;78.40;;;;;;5054416;28;20041;-76
2022/09/03 11:47:59;;;;;;;5.32;1.88;;;26.30;76.40;;;;;;5053416;28;20377;-76
2022/09/03 11:50:27;;;;;;;8.80;1.90;;;26.40;77.10;;;;;;5034320;28;20052;-77
2022/09/03 11:53:15;;;;;;;8.13;1.90;;;26.40;75.40;;;;;;5053648;28;20080;-77
2022/09/03 11:55:53;;;;;;;5.60;1.70;;;26.50;76.50;;;;;;5039466;28;20049;-77
2022/09/03 11:58:28;;;;;;;5.65;1.80;;;26.70;74.80;;;;;;5034218;28;20056;-77
2022/09/03 12:00:54;;;;;;;6.28;1.70;;;26.60;76.00;;;;;;5047517;28;20051;-77
2022/09/03 12:03:43;;;;;;;4.07;1.73;;;26.70;75.90;;;;;;5071868;28;20036;-78
2022/09/03 12:06:23;;;;;;;5.00;1.70;;;26.90;75.60;;;;;;5054854;28;20055;-79
2022/09/03 12:09:07;;;;;;;4.60;1.80;;;27.10;74.40;;;;;;5055174;28;20037;-81
2022/09/03 12:12:10;;;;;;;5.82;1.80;;;27.20;73.10;;;;;;5054054;28;20578;-83
2022/09/03 12:14:43;;;;;;;8.32;1.95;;;27.10;73.20;;;;;;5005650;28;20052;-80
2022/09/03 12:17:31;;;;;;;6.43;2.00;;;27.10;72.30;;;;;;5055362;28;20048;-81
2022/09/03 12:19:58;;;;;;;5.88;1.75;;;27.20;73.60;;;;;;5072506;28;20045;-83
2022/09/03 12:22:27;;;;;;;4.90;1.70;;;27.30;74.00;;;;;;5071459;28;20460;-82
2022/09/03 12:24:53;;;;;;;5.53;1.80;;;27.40;73.20;;;;;;5073128;28;20052;-82
2022/09/03 12:27:25;;;;;;;5.88;1.85;;;27.50;74.10;;;;;;5036065;28;20033;-81
2022/09/03 12:29:56;;;;;;;5.03;1.70;;;27.70;73.50;;;;;;5034690;28;20558;-81
2022/09/03 12:32:23;;;;;;;6.47;1.98;;;27.80;73.20;;;;;;5051888;28;20503;-82
2022/09/03 12:34:48;;;;;;;7.90;1.88;;;28.00;73.30;;;;;;5034890;28;20041;-84
2022/09/03 12:37:23;;;;;;;6.07;1.80;;;28.00;73.30;;;;;;5052526;28;20048;-76
2022/09/03 12:39:53;;;;;;;5.68;1.90;;;28.00;72.10;;;;;;5069359;28;20052;-81
2022/09/03 12:42:30;;;;;;;5.80;1.77;;;28.00;72.10;;;;;;5054004;28;20076;-84
2022/09/03 12:45:09;;;;;;;7.57;1.80;;;28.10;70.20;;;;;;5048389;28;20048;-81
2022/09/03 12:47:39;;;;;;;5.28;1.77;;;28.20;72.40;;;;;;5050031;28;20049;-83
2022/09/03 12:50:10;;;;;;;6.63;1.98;;;28.30;71.40;;;;;;5051895;28;20106;-82
2022/09/03 12:53:01;;;;;;;4.95;1.70;;;28.10;72.20;;;;;;5034327;28;20128;-79
2022/09/03 12:55:41;;;;;;;5.38;1.73;;;27.90;70.40;;;;;;5033661;28;20111;-79
2022/09/03 12:58:12;;;;;;;8.13;1.80;;;28.00;70.70;;;;;;5052285;28;20045;-79
2022/09/03 13:00:45;;;;;;;4.85;1.80;;;28.20;71.80;;;;;;5033694;28;20060;-80
2022/09/03 13:03:30;;;;;;;5.63;1.60;;;28.10;71.10;;;;;;5052792;28;20037;-79
2022/09/03 13:06:00;;;;;;;5.40;2.00;;;28.10;70.20;;;;;;5055063;28;20047;-78
2022/09/03 13:08:32;;;;;;;6.32;1.75;;;28.30;72.10;;;;;;5051295;28;20045;-78
2022/09/03 13:11:03;;;;;;;5.37;1.80;;;28.30;71.50;;;;;;5034366;28;20048;-79
2022/09/03 13:13:32;;;;;;;4.72;1.90;;;28.20;71.30;;;;;;5052249;28;20275;-79
2022/09/03 13:16:37;;;;;;;3.95;1.60;;;28.40;71.10;;;;;;5033769;28;20067;-78
2022/09/03 13:19:08;;;;;;;4.68;1.63;;;28.40;70.40;;;;;;5034423;28;20088;-78
2022/09/03 13:22:15;;;;;;;3.85;1.63;;;28.10;69.50;;;;;;5051591;28;20044;-78
2022/09/03 13:24:58;;;;;;;6.05;1.80;;;28.30;70.80;;;;;;5024795;28;20053;-79